Time;durP1;ratioP1;P1;durP2;ratioP2;P2;SDS_P1;SDS_P2;PMS_P1;PMS_P2;Temp;Humidity;BMP_temperature;BMP_pressure;BME280_temperature;BME280_humidity;BME280_pressure;Samples;Min_cycle;Max_cycle;Signal;HPM_P1;HPM_P2
2022/03/09 00:01:15;;;;;;;220.35;103.32;;;0.60;99.90;;;;;;5075372;28;20036;-57
2022/03/09 00:03:41;;;;;;;244.20;111.13;;;0.60;99.90;;;;;;5075075;28;20020;-57
2022/03/09 00:06:07;;;;;;;224.65;105.90;;;0.70;99.90;;;;;;5074941;28;20052;-57
2022/03/09 00:08:33;;;;;;;216.27;106.05;;;0.80;99.90;;;;;;5075278;28;20027;-58
2022/03/09 00:10:59;;;;;;;240.55;110.65;;;0.90;99.90;;;;;;5074955;28;20536;-57
2022/03/09 00:13:25;;;;;;;238.20;112.53;;;0.80;99.90;;;;;;5075077;28;20029;-57
2022/03/09 00:15:51;;;;;;;205.02;99.18;;;0.80;99.90;;;;;;5074933;28;20028;-57
2022/03/09 00:18:19;;;;;;;215.00;105.60;;;0.60;99.90;;;;;;5075089;28;20032;-58
2022/03/09 00:20:45;;;;;;;222.38;109.95;;;0.60;99.90;;;;;;5074865;28;20062;-57
2022/03/09 00:23:11;;;;;;;232.20;110.35;;;0.60;99.90;;;;;;5074919;28;20025;-57
2022/03/09 00:25:38;;;;;;;236.75;110.82;;;0.70;99.90;;;;;;5074804;28;20033;-58
2022/03/09 00:28:05;;;;;;;232.20;111.72;;;0.70;99.90;;;;;;5074439;28;20537;-57
2022/03/09 00:30:32;;;;;;;243.05;112.95;;;0.60;99.90;;;;;;5056329;28;20044;-57
2022/03/09 00:32:58;;;;;;;223.18;110.35;;;0.50;99.90;;;;;;5074367;28;20066;-57
2022/03/09 00:35:24;;;;;;;262.33;120.53;;;0.50;99.90;;;;;;5074622;28;20058;-57
2022/03/09 00:37:50;;;;;;;378.83;146.02;;;0.40;99.90;;;;;;5074397;28;20116;-58
2022/03/09 00:40:16;;;;;;;318.52;135.63;;;0.40;99.90;;;;;;5074395;28;20111;-57
2022/03/09 00:42:42;;;;;;;286.85;127.32;;;0.30;99.90;;;;;;5074201;28;20445;-57
2022/03/09 00:45:08;;;;;;;488.08;199.48;;;0.20;99.90;;;;;;5074532;28;20123;-57
2022/03/09 00:47:34;;;;;;;317.60;138.15;;;0.20;99.90;;;;;;5074317;28;20111;-58
2022/03/09 00:50:00;;;;;;;288.42;128.70;;;0.30;99.90;;;;;;5074170;28;20506;-57
2022/03/09 00:52:26;;;;;;;266.55;121.22;;;0.30;99.90;;;;;;5074200;28;20496;-58
2022/03/09 00:54:52;;;;;;;272.23;127.80;;;0.40;99.90;;;;;;5074085;28;20039;-57
2022/03/09 00:57:18;;;;;;;292.65;131.05;;;0.30;99.90;;;;;;5074260;28;20036;-58
2022/03/09 00:59:44;;;;;;;330.85;140.82;;;0.30;99.90;;;;;;5073945;28;20028;-57
2022/03/09 01:02:10;;;;;;;306.25;136.73;;;0.30;99.90;;;;;;5073977;28;20071;-57
2022/03/09 01:04:37;;;;;;;295.88;135.70;;;0.20;99.90;;;;;;5074480;28;20036;-57
2022/03/09 01:07:04;;;;;;;326.20;138.10;;;0.20;99.90;;;;;;5073898;28;20386;-57
2022/03/09 01:09:30;;;;;;;348.20;142.13;;;0.20;99.90;;;;;;5074034;28;20028;-57
2022/03/09 01:11:57;;;;;;;301.33;135.77;;;0.20;99.90;;;;;;5073705;28;20021;-58
2022/03/09 01:14:23;;;;;;;342.90;145.10;;;0.20;99.90;;;;;;5074413;28;20035;-58
2022/03/09 01:16:50;;;;;;;347.08;146.57;;;0.10;99.90;;;;;;5073849;28;20024;-58
2022/03/09 01:19:16;;;;;;;322.77;140.88;;;0.00;99.90;;;;;;5073907;28;20170;-57
2022/03/09 01:21:42;;;;;;;320.70;145.15;;;0.00;99.90;;;;;;5073653;28;20478;-57
2022/03/09 01:24:08;;;;;;;455.10;207.23;;;0.00;99.90;;;;;;5073898;28;20044;-57
2022/03/09 01:26:35;;;;;;;473.60;224.15;;;0.10;99.90;;;;;;5073860;28;20086;-57
2022/03/09 01:29:01;;;;;;;405.17;187.40;;;0.00;99.90;;;;;;5073438;28;20410;-58
2022/03/09 01:31:27;;;;;;;350.90;162.20;;;0.00;99.90;;;;;;5073553;28;20032;-58
2022/03/09 01:33:53;;;;;;;361.80;159.00;;;0.00;99.90;;;;;;5073782;28;20105;-58
2022/03/09 01:36:19;;;;;;;578.22;224.88;;;-0.10;99.90;;;;;;5073854;28;20031;-58
2022/03/09 01:38:45;;;;;;;617.53;251.90;;;-0.10;99.90;;;;;;5074969;28;20084;-57
2022/03/09 01:41:11;;;;;;;580.72;242.23;;;0.00;99.90;;;;;;5078050;28;20032;-57
2022/03/09 01:43:39;;;;;;;517.70;219.35;;;0.10;99.90;;;;;;5078084;28;20040;-57
2022/03/09 01:46:05;;;;;;;541.30;226.82;;;0.10;99.90;;;;;;5077901;28;20032;-57
2022/03/09 01:48:31;;;;;;;527.35;227.10;;;0.10;99.90;;;;;;5077862;28;20017;-57
2022/03/09 01:50:57;;;;;;;507.67;218.55;;;0.10;99.90;;;;;;5077551;28;20417;-57
2022/03/09 01:53:23;;;;;;;451.20;206.10;;;0.10;99.90;;;;;;5077735;28;20115;-58
2022/03/09 01:55:49;;;;;;;419.75;197.57;;;0.10;99.90;;;;;;5077590;28;20070;-57
2022/03/09 01:58:16;;;;;;;415.45;189.20;;;0.20;99.90;;;;;;5077638;28;20498;-57
2022/03/09 02:00:42;;;;;;;399.20;181.15;;;0.20;99.90;;;;;;5077386;28;20469;-57
2022/03/09 02:03:08;;;;;;;398.08;179.32;;;0.20;99.90;;;;;;5077632;28;20060;-58
2022/03/09 02:05:35;;;;;;;547.88;229.25;;;0.10;99.90;;;;;;5077569;28;20059;-58
2022/03/09 02:10:48;;;;;;;494.50;211.18;;;0.20;99.90;;;;;;5077499;28;20028;-58
2022/03/09 02:13:14;;;;;;;463.50;201.77;;;0.10;99.90;;;;;;5077365;28;20035;-57
2022/03/09 02:15:44;;;;;;;366.40;172.07;;;0.10;99.90;;;;;;5077326;28;20056;-57
2022/03/09 02:18:10;;;;;;;390.17;173.30;;;0.20;99.90;;;;;;5077146;28;20025;-58
2022/03/09 02:20:42;;;;;;;704.25;288.98;;;0.20;99.90;;;;;;5077387;28;20027;-57
2022/03/09 02:23:08;;;;;;;693.35;287.73;;;0.20;99.90;;;;;;5077229;28;20099;-57
2022/03/09 02:25:34;;;;;;;598.60;251.60;;;0.20;99.90;;;;;;5077078;28;20060;-57
2022/03/09 02:28:01;;;;;;;585.53;245.93;;;0.10;99.90;;;;;;5077057;28;20569;-57
2022/03/09 02:30:27;;;;;;;500.63;209.93;;;0.00;99.90;;;;;;5076869;28;20044;-57
2022/03/09 02:32:53;;;;;;;535.72;217.88;;;0.00;99.90;;;;;;5076745;28;20035;-57
2022/03/09 02:35:19;;;;;;;424.58;187.20;;;0.00;99.90;;;;;;5077023;28;20035;-57
2022/03/09 02:37:46;;;;;;;376.95;172.95;;;0.00;99.90;;;;;;5076736;28;20025;-57
2022/03/09 02:40:14;;;;;;;372.40;172.55;;;0.00;99.90;;;;;;5076676;28;20045;-57
2022/03/09 02:42:41;;;;;;;356.08;165.52;;;-0.10;99.90;;;;;;5076740;28;20104;-57
2022/03/09 02:45:07;;;;;;;366.17;173.30;;;-0.10;99.90;;;;;;5076864;28;20029;-58
2022/03/09 02:47:33;;;;;;;365.90;170.65;;;-0.10;99.90;;;;;;5076781;28;20458;-57
2022/03/09 02:50:00;;;;;;;349.17;166.15;;;-0.20;99.90;;;;;;5076432;28;20087;-58
2022/03/09 02:52:26;;;;;;;374.60;169.48;;;-0.20;99.90;;;;;;5076684;28;20067;-57
2022/03/09 02:54:52;;;;;;;379.80;170.40;;;-0.20;99.90;;;;;;5076270;28;20503;-57
2022/03/09 02:57:18;;;;;;;346.23;163.02;;;-0.30;99.90;;;;;;5076648;28;20131;-57
2022/03/09 02:59:44;;;;;;;355.45;163.15;;;-0.30;99.90;;;;;;5076586;28;20063;-57
2022/03/09 03:02:10;;;;;;;339.95;156.98;;;-0.30;99.90;;;;;;5076630;28;20390;-57
2022/03/09 03:04:36;;;;;;;589.42;274.88;;;-0.30;99.90;;;;;;5076423;28;20032;-57
2022/03/09 03:07:02;;;;;;;582.45;262.15;;;-0.20;99.90;;;;;;5075962;28;20025;-57
2022/03/09 03:09:28;;;;;;;540.60;235.75;;;-0.20;99.90;;;;;;5076415;28;20028;-57
2022/03/09 03:11:54;;;;;;;504.50;216.30;;;-0.20;99.90;;;;;;5068087;28;20032;-57
2022/03/09 03:14:20;;;;;;;528.70;230.52;;;-0.20;99.90;;;;;;5056227;28;20032;-57
2022/03/09 03:16:45;;;;;;;478.27;209.35;;;-0.20;99.90;;;;;;5055920;28;20029;-57
2022/03/09 03:19:11;;;;;;;423.90;189.85;;;-0.30;99.90;;;;;;5055981;28;20108;-57
2022/03/09 03:21:37;;;;;;;392.17;176.30;;;-0.40;99.90;;;;;;5056140;28;20536;-57
2022/03/09 03:24:04;;;;;;;348.33;161.15;;;-0.40;99.90;;;;;;5055899;28;20039;-57
2022/03/09 03:26:30;;;;;;;323.45;153.25;;;-0.40;99.90;;;;;;5055905;28;20075;-57
2022/03/09 03:28:58;;;;;;;304.58;144.93;;;-0.40;99.90;;;;;;5055489;28;20057;-58
2022/03/09 03:31:24;;;;;;;310.45;147.70;;;-0.50;99.90;;;;;;5055816;28;20029;-57
2022/03/09 03:33:50;;;;;;;276.30;133.93;;;-0.50;99.90;;;;;;5055699;28;20053;-57
2022/03/09 03:36:17;;;;;;;281.05;132.55;;;-0.50;99.90;;;;;;5055872;28;20071;-57
2022/03/09 03:38:43;;;;;;;260.50;128.30;;;-0.60;99.90;;;;;;5055615;28;20083;-58
2022/03/09 03:41:09;;;;;;;258.48;127.10;;;-0.60;99.90;;;;;;5055767;28;20547;-57
2022/03/09 03:43:35;;;;;;;244.70;121.32;;;-0.60;99.90;;;;;;5055733;28;20032;-57
2022/03/09 03:46:01;;;;;;;253.40;120.43;;;-0.60;99.90;;;;;;5055238;28;20037;-58
2022/03/09 03:48:27;;;;;;;293.55;144.65;;;-0.70;99.90;;;;;;5055681;28;20021;-58
2022/03/09 03:50:53;;;;;;;283.48;135.68;;;-0.70;99.90;;;;;;5055323;28;20028;-57
2022/03/09 03:53:19;;;;;;;277.40;133.20;;;-0.80;99.90;;;;;;5055429;28;20045;-57
2022/03/09 03:55:45;;;;;;;267.95;130.18;;;-0.80;99.90;;;;;;5055212;28;20025;-57
2022/03/09 03:58:11;;;;;;;262.55;129.82;;;-0.80;99.90;;;;;;5055375;28;20029;-57
2022/03/09 04:00:37;;;;;;;362.70;183.23;;;-0.80;99.90;;;;;;5055156;28;20067;-57
2022/03/09 04:03:03;;;;;;;352.02;171.95;;;-0.90;99.90;;;;;;5054781;28;20025;-58
2022/03/09 04:05:30;;;;;;;294.83;146.30;;;-1.00;99.90;;;;;;5055210;28;20017;-57
2022/03/09 04:07:56;;;;;;;266.27;136.80;;;-1.00;99.90;;;;;;5054807;28;20048;-57
2022/03/09 04:10:23;;;;;;;297.17;149.60;;;-0.90;99.90;;;;;;5055303;28;20028;-57
2022/03/09 04:12:48;;;;;;;319.52;155.00;;;-0.90;99.90;;;;;;5054885;28;20029;-57
2022/03/09 04:15:15;;;;;;;335.88;160.55;;;-1.00;99.90;;;;;;5055038;28;20486;-57
2022/03/09 04:17:41;;;;;;;318.38;151.75;;;-1.00;99.90;;;;;;5054989;28;20102;-57
2022/03/09 04:20:08;;;;;;;332.85;159.38;;;-1.10;99.90;;;;;;5054859;28;20137;-57
2022/03/09 04:22:34;;;;;;;324.48;156.77;;;-1.10;99.90;;;;;;5055328;28;20029;-57
2022/03/09 04:25:00;;;;;;;313.20;150.60;;;-1.10;99.90;;;;;;5054694;28;20072;-57
2022/03/09 04:27:26;;;;;;;313.90;150.50;;;-1.20;99.90;;;;;;5054542;28;20709;-58
2022/03/09 04:29:55;;;;;;;290.77;144.23;;;-1.20;99.90;;;;;;5065163;28;20045;-57
2022/03/09 04:32:21;;;;;;;278.00;134.82;;;-1.30;99.90;;;;;;5074760;28;20032;-57
2022/03/09 04:34:47;;;;;;;279.27;135.80;;;-1.20;99.90;;;;;;5074477;28;20029;-57
2022/03/09 04:37:13;;;;;;;269.98;132.90;;;-1.30;99.90;;;;;;5074834;28;20040;-57
2022/03/09 04:39:39;;;;;;;264.52;129.65;;;-1.30;99.90;;;;;;5074450;28;20024;-57
2022/03/09 04:42:05;;;;;;;260.50;126.35;;;-1.30;99.90;;;;;;5074432;28;20067;-57
2022/03/09 04:44:31;;;;;;;263.52;130.18;;;-1.30;99.90;;;;;;5074550;28;20085;-57
2022/03/09 04:46:57;;;;;;;285.02;141.30;;;-1.30;99.90;;;;;;5074166;28;20458;-57
2022/03/09 04:49:23;;;;;;;287.55;140.55;;;-1.30;99.90;;;;;;5074577;28;20024;-58
2022/03/09 04:51:49;;;;;;;253.30;126.07;;;-1.10;99.90;;;;;;5074363;28;20455;-57
2022/03/09 04:54:15;;;;;;;251.18;125.10;;;-1.10;99.90;;;;;;5074154;28;20036;-57
2022/03/09 04:56:42;;;;;;;226.00;111.97;;;-1.10;99.90;;;;;;5074205;28;20040;-57
2022/03/09 04:59:07;;;;;;;230.50;109.22;;;-1.20;99.90;;;;;;5074336;28;20374;-58
2022/03/09 05:01:33;;;;;;;217.90;104.70;;;-1.20;99.90;;;;;;5074532;28;20028;-57
2022/03/09 05:03:59;;;;;;;187.90;92.63;;;-1.30;99.90;;;;;;5073919;28;20037;-57
2022/03/09 05:06:25;;;;;;;228.23;107.97;;;-1.30;99.90;;;;;;5074238;28;20389;-57
2022/03/09 05:08:51;;;;;;;213.35;103.90;;;-1.40;99.90;;;;;;5073992;28;20016;-57
2022/03/09 05:11:17;;;;;;;208.60;103.35;;;-1.50;99.90;;;;;;5074197;28;20360;-57
2022/03/09 05:13:43;;;;;;;170.93;85.30;;;-1.50;99.90;;;;;;5073050;28;20200;-57
2022/03/09 05:16:10;;;;;;;175.40;90.35;;;-1.50;99.90;;;;;;5074176;28;20059;-57
2022/03/09 05:18:40;;;;;;;201.13;96.13;;;-1.50;99.90;;;;;;5074282;28;20478;-57
2022/03/09 05:21:07;;;;;;;205.77;102.23;;;-1.60;99.90;;;;;;5074196;28;20028;-57
2022/03/09 05:23:34;;;;;;;213.07;102.00;;;-1.70;99.90;;;;;;5073875;28;20039;-57
2022/03/09 05:25:59;;;;;;;203.00;99.13;;;-1.70;99.90;;;;;;5073703;28;20112;-57
2022/03/09 05:28:25;;;;;;;215.57;101.15;;;-1.60;99.90;;;;;;5074084;28;20495;-57
2022/03/09 05:30:51;;;;;;;207.82;102.30;;;-1.50;99.90;;;;;;5073558;28;20041;-57
2022/03/09 05:33:17;;;;;;;209.85;102.63;;;-1.40;99.90;;;;;;5073921;28;20036;-57
2022/03/09 05:35:44;;;;;;;224.85;105.75;;;-1.40;99.90;;;;;;5073678;28;20125;-57
2022/03/09 05:38:10;;;;;;;214.13;105.18;;;-1.40;99.90;;;;;;5073838;28;20028;-57
2022/03/09 05:40:36;;;;;;;214.13;103.57;;;-1.30;99.90;;;;;;5073855;28;20024;-57
2022/03/09 05:43:02;;;;;;;226.27;101.82;;;-1.20;99.90;;;;;;5073744;28;20420;-57
2022/03/09 05:45:28;;;;;;;215.77;100.22;;;-0.90;99.90;;;;;;5073693;28;20029;-57
2022/03/09 05:47:53;;;;;;;225.23;103.90;;;-0.90;99.90;;;;;;5073490;28;20108;-57
2022/03/09 05:50:21;;;;;;;220.13;101.30;;;-0.80;99.90;;;;;;5073929;28;20063;-57
2022/03/09 05:52:46;;;;;;;237.65;104.82;;;-0.70;99.90;;;;;;5073504;28;20047;-57
2022/03/09 05:55:13;;;;;;;207.93;99.70;;;-0.70;99.90;;;;;;5073769;28;20394;-57
2022/03/09 05:57:39;;;;;;;224.63;102.10;;;-0.70;99.90;;;;;;5073693;28;20024;-57
2022/03/09 06:00:06;;;;;;;231.98;104.88;;;-0.60;99.90;;;;;;5073509;28;20081;-57
2022/03/09 06:02:37;;;;;;;238.38;101.15;;;-0.70;99.90;;;;;;5073500;28;20029;-57
2022/03/09 06:05:03;;;;;;;242.45;104.40;;;-0.60;99.90;;;;;;5073415;28;20432;-57
2022/03/09 06:07:31;;;;;;;232.95;103.13;;;-0.60;99.90;;;;;;5073290;28;20115;-57
2022/03/09 06:09:58;;;;;;;242.93;105.45;;;-0.50;99.90;;;;;;5073753;28;20681;-57
2022/03/09 06:12:24;;;;;;;236.90;101.82;;;-0.40;99.90;;;;;;5069990;28;20025;-57
2022/03/09 06:14:50;;;;;;;250.65;105.50;;;-0.30;99.90;;;;;;5061166;28;20507;-57
2022/03/09 06:17:16;;;;;;;250.88;106.47;;;-0.10;99.90;;;;;;5065715;28;20032;-57
2022/03/09 06:19:42;;;;;;;265.52;106.80;;;0.00;99.90;;;;;;5059111;28;20040;-57
2022/03/09 06:22:08;;;;;;;291.17;115.00;;;0.10;99.90;;;;;;5068115;28;20055;-57
2022/03/09 06:24:34;;;;;;;309.77;117.18;;;0.10;99.90;;;;;;5063019;28;20029;-57
2022/03/09 06:27:00;;;;;;;327.08;119.00;;;0.20;99.90;;;;;;5062129;28;20033;-57
2022/03/09 06:29:26;;;;;;;302.75;114.15;;;0.30;99.90;;;;;;5061668;28;20128;-57
2022/03/09 06:31:52;;;;;;;297.27;110.57;;;0.30;99.90;;;;;;5062818;28;20033;-57
2022/03/09 06:34:18;;;;;;;296.23;111.68;;;0.40;99.90;;;;;;5058353;28;20086;-57
2022/03/09 06:36:45;;;;;;;307.30;115.35;;;0.30;99.90;;;;;;5066931;28;20033;-58
2022/03/09 06:39:15;;;;;;;270.52;108.55;;;0.30;99.90;;;;;;5068575;28;20024;-57
2022/03/09 06:41:45;;;;;;;284.80;104.22;;;0.40;99.90;;;;;;5064066;28;20032;-58
2022/03/09 06:44:12;;;;;;;280.13;108.15;;;0.40;99.90;;;;;;5062220;28;20031;-58
2022/03/09 06:46:39;;;;;;;281.90;108.22;;;0.50;99.90;;;;;;5072149;28;20028;-58
2022/03/09 06:49:05;;;;;;;297.23;109.50;;;0.40;99.90;;;;;;5065193;28;20378;-58
2022/03/09 06:51:31;;;;;;;301.27;110.97;;;0.60;99.90;;;;;;5076698;28;20027;-58
2022/03/09 06:53:58;;;;;;;339.10;118.82;;;0.70;99.90;;;;;;5060664;28;20139;-58
2022/03/09 06:56:24;;;;;;;370.05;121.95;;;0.70;99.90;;;;;;5058378;28;20051;-58
2022/03/09 06:58:50;;;;;;;376.02;128.23;;;0.70;99.90;;;;;;5075897;28;20500;-58
2022/03/09 07:01:17;;;;;;;360.08;122.85;;;0.70;99.90;;;;;;5070859;28;20025;-58
2022/03/09 07:03:42;;;;;;;350.25;122.88;;;0.80;99.90;;;;;;5068524;28;20032;-58
2022/03/09 07:06:08;;;;;;;350.95;125.15;;;0.90;99.90;;;;;;5063858;28;20102;-58
2022/03/09 07:08:36;;;;;;;358.73;124.80;;;0.90;99.90;;;;;;5062424;28;20025;-58
2022/03/09 07:11:02;;;;;;;382.50;130.10;;;0.90;99.90;;;;;;5073524;28;20382;-58
2022/03/09 07:13:29;;;;;;;376.15;125.68;;;1.00;99.90;;;;;;5065587;28;20137;-58
2022/03/09 07:15:55;;;;;;;438.63;138.77;;;1.10;99.90;;;;;;5072501;28;20024;-58
2022/03/09 07:18:21;;;;;;;401.45;130.68;;;1.00;99.90;;;;;;5074136;28;20029;-59
2022/03/09 07:20:47;;;;;;;457.17;144.88;;;1.10;99.90;;;;;;5075369;28;20051;-58
2022/03/09 07:23:13;;;;;;;452.20;144.68;;;1.10;99.90;;;;;;5073883;28;20051;-58
2022/03/09 07:25:40;;;;;;;500.15;155.43;;;1.20;99.90;;;;;;5065076;28;20017;-58
2022/03/09 07:28:06;;;;;;;528.13;164.73;;;1.30;99.90;;;;;;5059518;28;20040;-58
2022/03/09 07:30:35;;;;;;;525.38;160.75;;;1.30;99.90;;;;;;5060107;28;20045;-58
2022/03/09 07:33:01;;;;;;;529.35;161.60;;;1.20;99.90;;;;;;5086239;28;20028;-58
2022/03/09 07:35:27;;;;;;;532.70;162.10;;;1.30;99.90;;;;;;5079232;28;20432;-58
2022/03/09 07:37:53;;;;;;;547.75;161.27;;;1.30;99.90;;;;;;5073160;28;20029;-57
2022/03/09 07:40:19;;;;;;;561.08;169.15;;;1.30;99.90;;;;;;5062375;28;20116;-58
2022/03/09 07:42:45;;;;;;;563.10;171.07;;;1.50;99.90;;;;;;5060172;28;20116;-59
2022/03/09 07:45:11;;;;;;;544.55;169.52;;;1.60;99.90;;;;;;5066472;28;20064;-59
2022/03/09 07:47:37;;;;;;;537.25;162.38;;;1.70;99.90;;;;;;5071696;28;20060;-58
2022/03/09 07:50:08;;;;;;;529.53;167.88;;;1.80;99.90;;;;;;5061570;28;20029;-58
2022/03/09 07:52:36;;;;;;;565.35;167.02;;;1.90;99.90;;;;;;5077139;28;20395;-58
2022/03/09 07:55:06;;;;;;;570.42;173.45;;;2.00;99.90;;;;;;5062201;28;20459;-59
2022/03/09 07:57:32;;;;;;;512.42;153.32;;;2.10;99.90;;;;;;5077731;28;20025;-59
2022/03/09 08:00:00;;;;;;;499.52;151.50;;;2.20;99.90;;;;;;5072020;28;20059;-59
2022/03/09 08:02:26;;;;;;;484.27;142.77;;;2.30;99.90;;;;;;5060921;28;20029;-59
2022/03/09 08:04:52;;;;;;;477.08;140.20;;;2.50;99.90;;;;;;5068812;28;20020;-59
2022/03/09 08:07:18;;;;;;;471.25;142.50;;;2.60;99.90;;;;;;5080809;28;20066;-59
2022/03/09 08:09:44;;;;;;;479.25;142.05;;;2.90;99.90;;;;;;5080253;28;20053;-59
2022/03/09 08:12:16;;;;;;;454.17;141.07;;;3.40;99.90;;;;;;5082932;28;20491;-59
2022/03/09 08:14:42;;;;;;;428.33;132.63;;;3.80;99.90;;;;;;5083105;28;20408;-59
2022/03/09 08:17:08;;;;;;;420.98;129.23;;;3.90;99.90;;;;;;5086679;28;20032;-59
2022/03/09 08:19:35;;;;;;;434.58;133.32;;;4.10;99.90;;;;;;5095077;28;20118;-59
2022/03/09 08:22:01;;;;;;;442.60;128.50;;;4.30;99.90;;;;;;5094651;28;20036;-59
2022/03/09 08:24:27;;;;;;;433.40;131.10;;;4.70;99.90;;;;;;5093422;28;20028;-59
2022/03/09 08:26:53;;;;;;;411.98;126.85;;;4.90;99.90;;;;;;5085583;28;20107;-59
2022/03/09 08:29:36;;;;;;;449.33;136.20;;;5.10;99.90;;;;;;5081998;28;20441;-59
2022/03/09 08:32:02;;;;;;;431.92;133.02;;;5.30;99.90;;;;;;5082820;28;20466;-59
2022/03/09 08:34:28;;;;;;;412.42;131.73;;;5.20;99.90;;;;;;5056851;28;20124;-59
2022/03/09 08:36:54;;;;;;;452.75;139.18;;;5.20;99.90;;;;;;5070455;28;20063;-59
2022/03/09 08:39:20;;;;;;;418.42;130.82;;;4.90;99.90;;;;;;5053990;28;20123;-59
2022/03/09 08:41:46;;;;;;;372.52;119.20;;;4.90;99.90;;;;;;5068961;28;20035;-59
2022/03/09 08:44:12;;;;;;;320.73;110.35;;;4.80;99.90;;;;;;5063081;28;20043;-59
2022/03/09 08:46:44;;;;;;;297.08;97.22;;;4.70;99.90;;;;;;5053098;28;20417;-59
2022/03/09 08:49:10;;;;;;;288.17;95.57;;;4.50;99.90;;;;;;5075314;28;20033;-59
2022/03/09 08:51:36;;;;;;;299.30;98.82;;;4.60;99.90;;;;;;5071820;28;20096;-59
2022/03/09 08:54:02;;;;;;;216.13;80.00;;;4.50;99.90;;;;;;5070457;28;20024;-60
2022/03/09 08:56:28;;;;;;;214.52;75.28;;;4.40;99.90;;;;;;5074444;28;20445;-59
2022/03/09 08:58:55;;;;;;;176.43;64.50;;;4.40;99.90;;;;;;5066849;28;20414;-59
2022/03/09 09:01:24;;;;;;;236.25;81.75;;;4.40;99.90;;;;;;5066683;28;20027;-60
2022/03/09 09:03:51;;;;;;;187.50;71.00;;;4.40;99.90;;;;;;5069315;28;20527;-59
2022/03/09 09:06:17;;;;;;;179.77;64.07;;;4.50;99.90;;;;;;5068794;28;20032;-59
2022/03/09 09:08:45;;;;;;;193.80;71.75;;;4.80;99.90;;;;;;5061040;28;20033;-59
2022/03/09 09:11:11;;;;;;;167.40;62.65;;;4.70;99.90;;;;;;5067687;28;20027;-60
2022/03/09 09:13:37;;;;;;;174.05;64.88;;;4.70;99.90;;;;;;5073634;28;20028;-60
2022/03/09 09:16:04;;;;;;;175.93;66.22;;;4.60;99.90;;;;;;5078806;28;20028;-60
2022/03/09 09:18:30;;;;;;;136.23;59.83;;;4.60;99.90;;;;;;5074186;28;20085;-60
2022/03/09 09:20:57;;;;;;;138.32;56.85;;;4.70;99.90;;;;;;5080765;28;20030;-60
2022/03/09 09:23:23;;;;;;;123.45;53.00;;;4.80;99.90;;;;;;5094176;28;20371;-60
2022/03/09 09:25:49;;;;;;;111.55;52.80;;;4.90;99.90;;;;;;5071627;28;20478;-60
2022/03/09 09:28:17;;;;;;;105.93;53.40;;;4.80;99.90;;;;;;5060780;28;20056;-60
2022/03/09 09:30:43;;;;;;;100.88;47.08;;;4.70;99.90;;;;;;5090214;28;20039;-60
2022/03/09 09:33:09;;;;;;;104.40;49.20;;;4.60;99.90;;;;;;5093426;28;20073;-60
2022/03/09 09:35:36;;;;;;;92.57;48.95;;;4.60;99.90;;;;;;5074605;28;20078;-60
2022/03/09 09:38:06;;;;;;;103.60;48.88;;;4.70;99.90;;;;;;5072957;28;20039;-60
2022/03/09 09:40:45;;;;;;;93.38;48.28;;;4.70;99.90;;;;;;5070541;28;20403;-60
2022/03/09 09:43:15;;;;;;;105.07;52.25;;;4.80;99.90;;;;;;5072474;28;20359;-60
2022/03/09 09:45:42;;;;;;;90.95;47.25;;;4.80;99.90;;;;;;5058713;28;20017;-60
2022/03/09 09:48:09;;;;;;;91.05;48.10;;;5.00;99.90;;;;;;5073142;28;20077;-58
2022/03/09 09:50:36;;;;;;;134.73;54.90;;;5.00;99.90;;;;;;5069254;28;20351;-57
2022/03/09 09:53:07;;;;;;;94.00;47.97;;;5.10;99.90;;;;;;5070995;28;20048;-57
2022/03/09 09:55:34;;;;;;;103.85;48.95;;;5.20;99.90;;;;;;5072153;28;20032;-58
2022/03/09 09:58:01;;;;;;;92.43;46.42;;;5.20;99.90;;;;;;5071363;28;20028;-57
2022/03/09 10:00:27;;;;;;;97.93;49.10;;;5.30;99.90;;;;;;5074466;28;20028;-57
2022/03/09 10:02:53;;;;;;;97.68;47.88;;;5.40;99.90;;;;;;5075393;28;20035;-57
2022/03/09 10:05:19;;;;;;;100.25;46.88;;;5.60;99.90;;;;;;5076836;28;20067;-57
2022/03/09 10:08:04;;;;;;;82.60;45.13;;;5.80;99.90;;;;;;5082807;28;20095;-57
2022/03/09 10:10:41;;;;;;;84.80;43.20;;;6.10;99.90;;;;;;5092165;28;20035;-58
2022/03/09 10:13:19;;;;;;;87.68;44.78;;;6.30;99.90;;;;;;5085197;28;20103;-58
2022/03/09 10:16:05;;;;;;;96.10;44.80;;;6.10;99.90;;;;;;5083358;28;20015;-57
2022/03/09 10:18:35;;;;;;;82.07;41.67;;;6.30;99.90;;;;;;5082592;28;20060;-59
2022/03/09 10:21:17;;;;;;;95.28;44.38;;;6.50;99.90;;;;;;5067647;28;20086;-58
2022/03/09 10:23:53;;;;;;;88.82;42.85;;;6.70;99.90;;;;;;5072423;28;20776;-58
2022/03/09 10:26:26;;;;;;;87.03;37.40;;;6.90;99.90;;;;;;5073569;28;20025;-59
2022/03/09 10:28:58;;;;;;;97.50;36.03;;;7.00;99.90;;;;;;5086724;28;20062;-58
2022/03/09 10:31:48;;;;;;;64.82;31.30;;;7.10;99.90;;;;;;5073302;28;20075;-60
2022/03/09 10:34:19;;;;;;;82.13;40.47;;;7.20;99.90;;;;;;5081417;28;20435;-58
2022/03/09 10:36:54;;;;;;;64.82;32.45;;;7.30;99.90;;;;;;5061978;28;20040;-61
2022/03/09 10:39:22;;;;;;;61.92;32.10;;;7.30;99.40;;;;;;5070744;28;20024;-59
2022/03/09 10:41:47;;;;;;;51.95;26.77;;;7.70;99.90;;;;;;5073687;28;20569;-59
2022/03/09 10:44:14;;;;;;;50.28;23.95;;;8.00;97.00;;;;;;5066921;28;20115;-58
2022/03/09 10:46:50;;;;;;;51.40;24.45;;;7.70;97.70;;;;;;5063435;28;20055;-59
2022/03/09 10:49:26;;;;;;;48.55;25.10;;;7.40;96.20;;;;;;5067677;28;20025;-59
2022/03/09 10:51:53;;;;;;;53.55;22.33;;;7.40;96.50;;;;;;5059480;28;20029;-59
2022/03/09 10:54:29;;;;;;;53.90;28.50;;;7.60;95.00;;;;;;5058884;28;20045;-59
2022/03/09 10:57:13;;;;;;;72.95;34.58;;;7.50;96.30;;;;;;5076944;28;20071;-58
2022/03/09 10:59:51;;;;;;;76.55;37.38;;;7.30;97.00;;;;;;5070548;28;20024;-58
2022/03/09 11:02:20;;;;;;;62.53;31.15;;;7.50;98.00;;;;;;5065092;28;20037;-58
2022/03/09 11:05:22;;;;;;;57.13;28.73;;;7.10;97.20;;;;;;5061083;28;20024;-58
2022/03/09 11:07:50;;;;;;;56.42;28.90;;;7.00;96.70;;;;;;5029753;28;20067;-58
2022/03/09 11:10:16;;;;;;;62.42;28.73;;;7.00;97.30;;;;;;5064888;28;20032;-59
2022/03/09 11:12:43;;;;;;;66.30;30.50;;;7.10;97.90;;;;;;5068074;28;20114;-58
2022/03/09 11:15:09;;;;;;;45.70;25.00;;;7.30;97.50;;;;;;5061392;28;20028;-59
2022/03/09 11:17:35;;;;;;;60.95;27.10;;;7.10;96.40;;;;;;5070246;28;20497;-58
2022/03/09 11:20:01;;;;;;;41.83;22.65;;;7.20;96.50;;;;;;5061106;28;20033;-59
2022/03/09 11:22:27;;;;;;;46.45;24.90;;;7.30;97.80;;;;;;5064482;28;21471;-58
2022/03/09 11:24:53;;;;;;;42.60;22.52;;;7.00;97.00;;;;;;5069121;28;20039;-58
2022/03/09 11:27:20;;;;;;;43.25;22.50;;;7.30;98.50;;;;;;5069501;28;20032;-59
2022/03/09 11:29:46;;;;;;;38.90;20.90;;;7.30;96.10;;;;;;5068715;28;20036;-58
2022/03/09 11:32:14;;;;;;;50.15;24.33;;;7.20;95.70;;;;;;5066235;28;20025;-58
2022/03/09 11:34:45;;;;;;;46.35;20.83;;;7.40;96.20;;;;;;5061137;28;20028;-59
2022/03/09 11:37:15;;;;;;;39.97;21.02;;;7.70;95.30;;;;;;5066723;28;20088;-58
2022/03/09 11:40:11;;;;;;;38.67;19.80;;;7.70;95.00;;;;;;5075088;28;20039;-59
2022/03/09 11:42:41;;;;;;;42.35;22.02;;;7.80;94.30;;;;;;5067260;28;20382;-58
2022/03/09 11:45:29;;;;;;;28.10;14.38;;;8.00;95.00;;;;;;5076589;28;20159;-59
2022/03/09 11:48:05;;;;;;;39.58;19.95;;;8.40;91.00;;;;;;5070725;28;20455;-58
2022/03/09 11:50:55;;;;;;;32.08;14.63;;;8.50;90.20;;;;;;5078257;28;20543;-59
2022/03/09 11:53:38;;;;;;;23.90;11.77;;;8.70;91.40;;;;;;5068361;28;20072;-58
2022/03/09 11:56:27;;;;;;;34.50;13.98;;;8.80;87.00;;;;;;5079897;28;20111;-59
2022/03/09 11:59:10;;;;;;;49.75;18.98;;;8.70;84.80;;;;;;5075300;28;20028;-59
2022/03/09 12:01:58;;;;;;;31.52;15.30;;;8.40;88.60;;;;;;5067201;28;20054;-59
2022/03/09 12:04:40;;;;;;;24.77;12.38;;;8.40;90.10;;;;;;5061607;28;20040;-58
2022/03/09 12:07:09;;;;;;;;;;;8.40;84.60;;;;;;5067183;28;20083;-58
2022/03/09 12:10:02;;;;;;;32.75;15.27;;;8.40;91.40;;;;;;5063285;28;20365;-59
2022/03/09 12:12:30;;;;;;;27.77;14.63;;;8.40;90.70;;;;;;5069179;28;20025;-59
2022/03/09 12:15:02;;;;;;;26.35;14.63;;;8.40;91.40;;;;;;5074480;28;20028;-58
2022/03/09 12:17:29;;;;;;;38.05;16.75;;;8.40;90.70;;;;;;5085938;28;20060;-59
2022/03/09 12:20:23;;;;;;;40.40;19.35;;;8.40;90.40;;;;;;5094860;28;20028;-59
2022/03/09 12:23:03;;;;;;;52.80;23.42;;;8.30;89.50;;;;;;5094524;28;20063;-59
2022/03/09 12:25:39;;;;;;;39.97;20.38;;;8.40;93.70;;;;;;5090484;28;20714;-59
2022/03/09 12:28:24;;;;;;;34.38;17.67;;;8.40;90.00;;;;;;5072880;28;20024;-59